createdAt,value
2019-01-02T00:00:50.000Z,24.2
2019-01-02T00:02:50.000Z,24.2
2019-01-02T00:04:35.000Z,24.2
2019-01-02T00:05:50.000Z,24.2
2019-01-02T00:07:50.000Z,24.2
2019-01-02T00:08:50.000Z,24.2
2019-01-02T00:10:50.000Z,24.2
2019-01-02T00:11:50.000Z,24.2
2019-01-02T00:13:50.000Z,24.2
2019-01-02T00:15:50.000Z,24.3
2019-01-02T00:16:50.000Z,24.2
2019-01-02T00:18:35.000Z,24.3
2019-01-02T00:19:50.000Z,24.2
2019-01-02T00:20:50.000Z,24.3
2019-01-02T00:22:35.000Z,24.4
2019-01-02T00:23:50.000Z,24.3
2019-01-02T00:25:35.000Z,24.2
2019-01-02T00:26:50.000Z,24.1
2019-01-02T00:27:50.000Z,24.1
2019-01-02T00:29:50.000Z,24.1
2019-01-02T00:31:50.000Z,24.1
2019-01-02T00:33:35.000Z,24.1
2019-01-02T00:34:50.000Z,24
2019-01-02T00:35:50.000Z,24
2019-01-02T00:36:50.000Z,24
2019-01-02T00:38:35.000Z,24
2019-01-02T00:39:50.000Z,23.9
2019-01-02T00:41:35.000Z,23.9
2019-01-02T00:42:50.000Z,23.8
2019-01-02T00:44:50.000Z,23.8
2019-01-02T00:45:50.000Z,23.8
2019-01-02T00:47:50.000Z,23.9
2019-01-02T00:49:50.000Z,23.9
2019-01-02T00:51:35.000Z,23.9
2019-01-02T00:52:50.000Z,23.8
2019-01-02T00:54:50.000Z,23.8
2019-01-02T00:56:35.000Z,23.8
2019-01-02T00:57:50.000Z,23.8
2019-01-02T00:58:50.000Z,23.8
2019-01-02T00:59:50.000Z,23.9
2019-01-02T01:01:35.000Z,24
2019-01-02T01:03:35.000Z,23.8
2019-01-02T01:04:50.000Z,23.9
2019-01-02T01:06:35.000Z,23.8
2019-01-02T01:08:35.000Z,23.7
2019-01-02T01:09:50.000Z,23.6
2019-01-02T01:10:50.000Z,23.6
2019-01-02T01:12:50.000Z,23.7
2019-01-02T01:14:50.000Z,23.7
2019-01-02T01:16:35.000Z,23.7
2019-01-02T01:17:50.000Z,23.7
2019-01-02T01:18:50.000Z,23.7
2019-01-02T01:20:50.000Z,23.8
2019-01-02T01:22:50.000Z,23.9
2019-01-02T01:23:50.000Z,23.9
2019-01-02T01:25:50.000Z,24
2019-01-02T01:27:35.000Z,24
2019-01-02T01:29:50.000Z,23.9
2019-01-02T01:31:50.000Z,23.9
2019-01-02T01:33:35.000Z,23.9
2019-01-02T01:34:50.000Z,23.9
2019-01-02T01:36:35.000Z,23.9
2019-01-02T01:37:50.000Z,23.8
2019-01-02T01:38:50.000Z,23.8
2019-01-02T01:40:50.000Z,23.9
2019-01-02T01:42:50.000Z,24
2019-01-02T01:44:35.000Z,24
2019-01-02T01:45:50.000Z,24
2019-01-02T01:46:50.000Z,24
2019-01-02T01:48:35.000Z,24
2019-01-02T01:49:50.000Z,24
2019-01-02T01:51:35.000Z,24.1
2019-01-02T01:52:50.000Z,24.1
2019-01-02T01:54:50.000Z,24.1
2019-01-02T01:55:50.000Z,24.2
2019-01-02T01:56:50.000Z,24.2
2019-01-02T01:58:35.000Z,24.2
2019-01-02T01:59:50.000Z,24.1
2019-01-02T02:00:50.000Z,24
2019-01-02T02:02:50.000Z,24
2019-01-02T02:04:35.000Z,24
2019-01-02T02:05:50.000Z,23.9
2019-01-02T02:07:35.000Z,23.8
2019-01-02T02:09:50.000Z,23.7
2019-01-02T02:11:50.000Z,23.7
2019-01-02T02:13:35.000Z,23.7
2019-01-02T02:14:50.000Z,23.7
2019-01-02T02:16:50.000Z,23.8
2019-01-02T02:18:35.000Z,23.7
2019-01-02T02:19:50.000Z,23.6
2019-01-02T02:20:50.000Z,23.6
2019-01-02T02:22:50.000Z,23.7
2019-01-02T02:24:35.000Z,23.7
2019-01-02T02:25:50.000Z,23.6
2019-01-02T02:26:50.000Z,23.7
2019-01-02T02:28:50.000Z,23.8
2019-01-02T02:30:50.000Z,23.9
2019-01-02T02:32:50.000Z,23.9
2019-01-02T02:34:50.000Z,23.8
2019-01-02T02:36:35.000Z,23.8
2019-01-02T02:37:50.000Z,23.8
2019-01-02T02:39:35.000Z,23.8
2019-01-02T02:40:50.000Z,23.7
2019-01-02T02:42:35.000Z,23.5
2019-01-02T02:43:50.000Z,23.7
2019-01-02T02:45:35.000Z,23.7
2019-01-02T02:46:50.000Z,23.6
2019-01-02T02:48:35.000Z,23.7
2019-01-02T02:49:50.000Z,23.7
2019-01-02T02:51:35.000Z,23.7
2019-01-02T02:52:50.000Z,23.7
2019-01-02T02:54:50.000Z,23.7
2019-01-02T02:56:35.000Z,23.7
2019-01-02T02:57:50.000Z,23.7
2019-01-02T02:59:35.000Z,23.8
2019-01-02T03:00:35.000Z,23.7
2019-01-02T03:02:50.000Z,23.5
2019-01-02T03:03:50.000Z,23.6
2019-01-02T03:05:50.000Z,23.6
2019-01-02T03:07:35.000Z,23.7
2019-01-02T03:09:50.000Z,23.6
2019-01-02T03:11:50.000Z,23.5
2019-01-02T03:13:35.000Z,23.5
2019-01-02T03:15:35.000Z,23.5
2019-01-02T03:16:35.000Z,23.4
2019-01-02T03:17:50.000Z,23.3
2019-01-02T03:18:50.000Z,23.4
2019-01-02T03:20:50.000Z,23.5
2019-01-02T03:22:35.000Z,23.5
2019-01-02T03:23:50.000Z,23.5
2019-01-02T03:25:35.000Z,23.6
2019-01-02T03:26:50.000Z,23.6
2019-01-02T03:28:35.000Z,23.7
2019-01-02T03:30:35.000Z,23.5
2019-01-02T03:31:35.000Z,23.5
2019-01-02T03:33:50.000Z,23.3
2019-01-02T03:34:50.000Z,23.4
2019-01-02T03:36:50.000Z,23.6
2019-01-02T03:38:50.000Z,23.9
2019-01-02T03:40:50.000Z,24
2019-01-02T03:42:50.000Z,24.1
2019-01-02T03:43:50.000Z,24.2
2019-01-02T03:45:50.000Z,24.3
2019-01-02T03:47:50.000Z,24.4
2019-01-02T03:48:50.000Z,24.4
2019-01-02T03:50:50.000Z,24.5
2019-01-02T03:51:50.000Z,24.5
2019-01-02T03:53:35.000Z,24.6
2019-01-02T03:54:50.000Z,24.6
2019-01-02T03:55:50.000Z,24.6
2019-01-02T03:57:50.000Z,24.7
2019-01-02T03:59:35.000Z,24.7
2019-01-02T04:00:50.000Z,24.7
2019-01-02T04:02:50.000Z,24.7
2019-01-02T04:03:50.000Z,24.7
2019-01-02T04:04:50.000Z,24.8
2019-01-02T04:05:50.000Z,24.8
2019-01-02T04:07:50.000Z,24.9
2019-01-02T04:08:50.000Z,24.9
2019-01-02T04:10:50.000Z,24.9
2019-01-02T04:12:50.000Z,24.8
2019-01-02T04:13:50.000Z,24.7
2019-01-02T04:15:50.000Z,24.7
2019-01-02T04:16:50.000Z,24.8
2019-01-02T04:17:50.000Z,24.8
2019-01-02T04:19:35.000Z,24.9
2019-01-02T04:20:50.000Z,24.9
2019-01-02T04:21:50.000Z,24.9
2019-01-02T04:23:50.000Z,24.9
2019-01-02T04:24:50.000Z,24.9
2019-01-02T04:26:50.000Z,25
2019-01-02T04:27:50.000Z,25
2019-01-02T04:29:50.000Z,24.9
2019-01-02T04:31:50.000Z,24.8
2019-01-02T04:32:50.000Z,24.8
2019-01-02T04:34:50.000Z,24.9
2019-01-02T04:36:50.000Z,24.8
2019-01-02T04:38:50.000Z,24.7
2019-01-02T04:40:50.000Z,24.6
2019-01-02T04:41:50.000Z,24.6
2019-01-02T04:43:50.000Z,24.7
2019-01-02T04:44:50.000Z,24.7
2019-01-02T04:46:50.000Z,24.8
2019-01-02T04:47:50.000Z,24.8
2019-01-02T04:49:50.000Z,24.9
2019-01-02T04:51:50.000Z,24.8
2019-01-02T04:53:50.000Z,24.8
2019-01-02T04:54:50.000Z,24.8
2019-01-02T04:56:50.000Z,24.9
2019-01-02T04:57:50.000Z,24.9
2019-01-02T04:59:50.000Z,24.9
2019-01-02T05:00:50.000Z,24.9
2019-01-02T05:02:50.000Z,24.9
2019-01-02T05:04:50.000Z,24.9
2019-01-02T05:06:50.000Z,24.8
2019-01-02T05:08:50.000Z,24.8
2019-01-02T05:10:34.000Z,24.8
2019-01-02T05:11:50.000Z,24.7
2019-01-02T05:13:34.000Z,24.7
2019-01-02T05:14:50.000Z,24.7
2019-01-02T05:16:50.000Z,24.7
2019-01-02T05:18:50.000Z,24.7
2019-01-02T05:19:50.000Z,24.7
2019-01-02T05:21:50.000Z,24.8
2019-01-02T05:23:50.000Z,24.8
2019-01-02T05:25:50.000Z,24.7
2019-01-02T05:27:50.000Z,24.7
2019-01-02T05:29:50.000Z,24.7
2019-01-02T05:31:50.000Z,24.7
2019-01-02T05:32:50.000Z,24.7
2019-01-02T05:34:50.000Z,24.7
2019-01-02T05:36:50.000Z,24.6
2019-01-02T05:38:50.000Z,24.6
2019-01-02T05:40:50.000Z,24.5
2019-01-02T05:41:50.000Z,24.5
2019-01-02T05:43:50.000Z,24.6
2019-01-02T05:44:50.000Z,24.7
2019-01-02T05:46:50.000Z,24.7
2019-01-02T05:48:50.000Z,24.6
2019-01-02T05:50:50.000Z,24.6
2019-01-02T05:52:34.000Z,24.7
2019-01-02T05:53:50.000Z,24.6
2019-01-02T05:54:50.000Z,24.7
2019-01-02T05:56:50.000Z,24.7
2019-01-02T05:58:50.000Z,24.8
2019-01-02T05:59:50.000Z,24.8
2019-01-02T06:01:50.000Z,24.7
2019-01-02T06:02:50.000Z,24.7
2019-01-02T06:04:50.000Z,24.8
2019-01-02T06:05:50.000Z,24.8
2019-01-02T06:06:50.000Z,24.9
2019-01-02T06:07:50.000Z,24.9
2019-01-02T06:09:50.000Z,25
2019-01-02T06:11:50.000Z,24.9
2019-01-02T06:13:50.000Z,24.9
2019-01-02T06:14:50.000Z,24.9
2019-01-02T06:16:50.000Z,24.9
2019-01-02T06:17:50.000Z,24.9
2019-01-02T06:19:35.000Z,24.9
2019-01-02T06:20:50.000Z,24.9
2019-01-02T06:21:50.000Z,24.9
2019-01-02T06:23:35.000Z,24.9
2019-01-02T06:24:50.000Z,24.8
2019-01-02T06:25:50.000Z,24.9
2019-01-02T06:27:50.000Z,24.9
2019-01-02T06:29:50.000Z,24.9
2019-01-02T06:30:50.000Z,24.9
2019-01-02T06:32:50.000Z,25
2019-01-02T06:33:50.000Z,25
2019-01-02T06:35:50.000Z,25
2019-01-02T06:36:50.000Z,25
2019-01-02T06:37:50.000Z,25
2019-01-02T06:39:50.000Z,25
2019-01-02T06:40:50.000Z,25
2019-01-02T06:42:50.000Z,25.1
2019-01-02T06:44:50.000Z,25
2019-01-02T06:46:35.000Z,25
2019-01-02T06:47:50.000Z,25
2019-01-02T06:49:50.000Z,24.9
2019-01-02T06:50:50.000Z,25
2019-01-02T06:52:50.000Z,25
2019-01-02T06:54:50.000Z,25
2019-01-02T06:56:50.000Z,25
2019-01-02T06:57:50.000Z,25
2019-01-02T06:59:50.000Z,24.9
2019-01-02T07:00:50.000Z,24.9
2019-01-02T07:02:50.000Z,25
2019-01-02T07:03:50.000Z,25
2019-01-02T07:05:50.000Z,25
2019-01-02T07:06:50.000Z,25
2019-01-02T07:08:50.000Z,25
2019-01-02T07:10:50.000Z,25
2019-01-02T07:11:50.000Z,25
2019-01-02T07:12:50.000Z,25.1
2019-01-02T07:13:50.000Z,25.1
2019-01-02T07:15:50.000Z,25.1
2019-01-02T07:17:50.000Z,25
2019-01-02T07:18:50.000Z,25
2019-01-02T07:20:50.000Z,25
2019-01-02T07:21:50.000Z,25
2019-01-02T07:23:50.000Z,25.1
2019-01-02T07:24:50.000Z,25.1
2019-01-02T07:25:50.000Z,25.1
2019-01-02T07:27:50.000Z,25.2
2019-01-02T07:29:50.000Z,25.1
2019-01-02T07:31:50.000Z,25
2019-01-02T07:32:50.000Z,25
2019-01-02T07:34:50.000Z,25
2019-01-02T07:35:50.000Z,25
2019-01-02T07:36:50.000Z,25.1
2019-01-02T07:38:50.000Z,25.1
2019-01-02T07:40:50.000Z,25.1
2019-01-02T07:41:50.000Z,25.1
2019-01-02T07:43:35.000Z,25.1
2019-01-02T07:44:50.000Z,25
2019-01-02T07:45:50.000Z,25
2019-01-02T07:47:50.000Z,25
2019-01-02T07:48:50.000Z,25
2019-01-02T07:50:50.000Z,25
2019-01-02T07:52:50.000Z,25
2019-01-02T07:53:50.000Z,25.1
2019-01-02T07:55:35.000Z,25
2019-01-02T07:56:50.000Z,25
2019-01-02T07:57:50.000Z,25
2019-01-02T07:58:50.000Z,25
2019-01-02T08:00:35.000Z,25
2019-01-02T08:01:50.000Z,25
2019-01-02T08:02:50.000Z,25
2019-01-02T08:04:50.000Z,25.1
2019-01-02T08:06:50.000Z,25.1
2019-01-02T08:07:50.000Z,25.2
2019-01-02T08:09:50.000Z,25.2
2019-01-02T08:10:50.000Z,25.2
2019-01-02T08:11:50.000Z,25.3
2019-01-02T08:13:50.000Z,25.3
2019-01-02T08:15:34.000Z,25.3
2019-01-02T08:16:50.000Z,25.3
2019-01-02T08:18:50.000Z,25.2
2019-01-02T08:20:50.000Z,25.2
2019-01-02T08:21:50.000Z,25.2
2019-01-02T08:22:50.000Z,25.2
2019-01-02T08:24:50.000Z,25.2
2019-01-02T08:25:50.000Z,25.2
2019-01-02T08:27:50.000Z,25.2
2019-01-02T08:28:50.000Z,25.3
2019-01-02T08:30:50.000Z,25.2
2019-01-02T08:31:50.000Z,25.2
2019-01-02T08:33:34.000Z,25.3
2019-01-02T08:34:50.000Z,25.3
2019-01-02T08:36:34.000Z,25.3
2019-01-02T08:37:50.000Z,25.3
2019-01-02T08:38:50.000Z,25.3
2019-01-02T08:40:50.000Z,25.4
2019-01-02T08:41:50.000Z,25.4
2019-01-02T08:43:50.000Z,25.4
2019-01-02T08:45:50.000Z,25.4
2019-01-02T08:47:50.000Z,25.3
2019-01-02T08:48:50.000Z,25.3
2019-01-02T08:50:50.000Z,25.3
2019-01-02T08:51:50.000Z,25.3
2019-01-02T08:52:50.000Z,25.4
2019-01-02T08:53:50.000Z,25.5
2019-01-02T08:55:50.000Z,25.5
2019-01-02T08:56:50.000Z,25.6
2019-01-02T08:58:50.000Z,25.5
2019-01-02T09:00:50.000Z,25.5
2019-01-02T09:01:50.000Z,25.5
2019-01-02T09:02:50.000Z,25.5
2019-01-02T09:04:50.000Z,25.6
2019-01-02T09:05:50.000Z,25.6
2019-01-02T09:06:50.000Z,25.6
2019-01-02T09:08:50.000Z,25.6
2019-01-02T09:10:50.000Z,25.6
2019-01-02T09:12:50.000Z,25.5
2019-01-02T09:13:50.000Z,25.5
2019-01-02T09:15:50.000Z,25.4
2019-01-02T09:16:50.000Z,25.4
2019-01-02T09:17:50.000Z,25.4
2019-01-02T09:18:50.000Z,25.4
2019-01-02T09:19:50.000Z,25.4
2019-01-02T09:21:50.000Z,25.4
2019-01-02T09:23:35.000Z,25.4
2019-01-02T09:24:50.000Z,25.4
2019-01-02T09:26:35.000Z,25.3
2019-01-02T09:27:50.000Z,25.3
2019-01-02T09:29:35.000Z,25.3
2019-01-02T09:30:50.000Z,25.2
2019-01-02T09:32:50.000Z,25.2
2019-01-02T09:33:50.000Z,25.2
2019-01-02T09:35:50.000Z,25.2
2019-01-02T09:36:50.000Z,25.3
2019-01-02T09:38:50.000Z,25.3
2019-01-02T09:40:35.000Z,25.4
2019-01-02T09:41:50.000Z,25.3
2019-01-02T09:42:50.000Z,25.4
2019-01-02T09:44:50.000Z,25.4
2019-01-02T09:46:35.000Z,25.5
2019-01-02T09:48:50.000Z,25.4
2019-01-02T09:49:50.000Z,25.4
2019-01-02T09:51:50.000Z,25.5
2019-01-02T09:53:35.000Z,25.7
2019-01-02T09:55:50.000Z,25.5
2019-01-02T09:56:50.000Z,25.6
2019-01-02T09:58:50.000Z,25.8
2019-01-02T09:59:50.000Z,25.9
2019-01-02T10:01:50.000Z,26.1
2019-01-02T10:03:50.000Z,26.3
2019-01-02T10:04:50.000Z,26.4
2019-01-02T10:06:50.000Z,26.5
2019-01-02T10:08:50.000Z,26.6
2019-01-02T10:09:50.000Z,26.6
2019-01-02T10:10:50.000Z,26.7
2019-01-02T10:11:50.000Z,26.7
2019-01-02T10:13:50.000Z,26.7
2019-01-02T10:14:50.000Z,26.7
2019-01-02T10:15:50.000Z,26.7
2019-01-02T10:16:50.000Z,26.8
2019-01-02T10:18:50.000Z,26.8
2019-01-02T10:19:50.000Z,26.8
2019-01-02T10:20:50.000Z,26.9
2019-01-02T10:22:50.000Z,27
2019-01-02T10:23:50.000Z,27.1
2019-01-02T10:24:50.000Z,27.2
2019-01-02T10:26:35.000Z,27.3
2019-01-02T10:27:50.000Z,27.4
2019-01-02T10:29:50.000Z,27.3
2019-01-02T10:30:50.000Z,27.2
2019-01-02T10:31:50.000Z,27.2
2019-01-02T10:33:50.000Z,26.9
2019-01-02T10:35:50.000Z,26.7
2019-01-02T10:37:50.000Z,26.6
2019-01-02T10:38:50.000Z,26.6
2019-01-02T10:40:50.000Z,26.5
2019-01-02T10:42:50.000Z,26.5
2019-01-02T10:44:50.000Z,26.4
2019-01-02T10:46:50.000Z,26.3
2019-01-02T10:48:35.000Z,26.3
2019-01-02T10:49:50.000Z,26.3
2019-01-02T10:51:50.000Z,26.2
2019-01-02T10:52:50.000Z,26.2
2019-01-02T10:54:50.000Z,26.3
2019-01-02T10:55:50.000Z,26.3
2019-01-02T10:57:50.000Z,26.3
2019-01-02T10:59:50.000Z,26.1
2019-01-02T11:00:50.000Z,26.1
2019-01-02T11:02:50.000Z,26.1
2019-01-02T11:03:50.000Z,26.2
2019-01-02T11:05:50.000Z,26.2
2019-01-02T11:06:50.000Z,26.2
2019-01-02T11:08:50.000Z,26.3
2019-01-02T11:10:50.000Z,26.3
2019-01-02T11:12:50.000Z,26.2
2019-01-02T11:13:50.000Z,26.2
2019-01-02T11:15:50.000Z,26.2
2019-01-02T11:17:50.000Z,26.1
2019-01-02T11:19:35.000Z,26.1
2019-01-02T11:20:50.000Z,26.1
2019-01-02T11:21:50.000Z,26.1
2019-01-02T11:23:50.000Z,26.1
2019-01-02T11:25:50.000Z,26.1
2019-01-02T11:26:50.000Z,26.1
2019-01-02T11:28:50.000Z,26.2
2019-01-02T11:30:50.000Z,26.2
2019-01-02T11:31:50.000Z,26.2
2019-01-02T11:32:50.000Z,26.2
2019-01-02T11:34:50.000Z,26.3
2019-01-02T11:36:50.000Z,26.2
2019-01-02T11:38:50.000Z,26.1
2019-01-02T11:39:50.000Z,26.1
2019-01-02T11:40:50.000Z,26.2
2019-01-02T11:41:50.000Z,26.2
2019-01-02T11:42:50.000Z,26.3
2019-01-02T11:43:50.000Z,26.3
2019-01-02T11:45:50.000Z,26.4
2019-01-02T11:47:50.000Z,26.3
2019-01-02T11:48:50.000Z,26.3
2019-01-02T11:50:50.000Z,26.3
2019-01-02T11:51:50.000Z,26.3
2019-01-02T11:53:50.000Z,26.3
2019-01-02T11:55:50.000Z,26.3
2019-01-02T11:57:50.000Z,26.2
2019-01-02T11:58:50.000Z,26.1
2019-01-02T12:00:50.000Z,26.2
2019-01-02T12:01:50.000Z,26.2
2019-01-02T12:03:50.000Z,26.2
2019-01-02T12:05:50.000Z,26.1
2019-01-02T12:06:50.000Z,26.1
2019-01-02T12:08:50.000Z,26.1
2019-01-02T12:09:50.000Z,26.1
2019-01-02T12:10:50.000Z,26.2
2019-01-02T12:11:50.000Z,26.2
2019-01-02T12:13:50.000Z,26.2
2019-01-02T12:15:35.000Z,26.1
2019-01-02T12:16:50.000Z,26.1
2019-01-02T12:17:50.000Z,26.1
2019-01-02T12:18:50.000Z,26.1
2019-01-02T12:20:50.000Z,26.2
2019-01-02T12:22:50.000Z,26.1
2019-01-02T12:23:50.000Z,26.1
2019-01-02T12:25:50.000Z,26.1
2019-01-02T12:27:50.000Z,26.1
2019-01-02T12:28:50.000Z,26.1
2019-01-02T12:30:35.000Z,26.1
2019-01-02T12:31:50.000Z,26.1
2019-01-02T12:32:50.000Z,26.1
2019-01-02T12:34:50.000Z,26.1
2019-01-02T12:35:50.000Z,26.1
2019-01-02T12:37:50.000Z,26.1
2019-01-02T12:38:50.000Z,26.2
2019-01-02T12:40:50.000Z,26.2
2019-01-02T12:42:50.000Z,26.1
2019-01-02T12:44:50.000Z,26.1
2019-01-02T12:46:50.000Z,26.2
2019-01-02T12:47:50.000Z,26.2
2019-01-02T12:49:50.000Z,26.3
2019-01-02T12:51:50.000Z,26.4
2019-01-02T12:53:50.000Z,26.4
2019-01-02T12:54:50.000Z,26.4
2019-01-02T12:55:50.000Z,26.4
2019-01-02T12:57:50.000Z,26.4
2019-01-02T12:59:50.000Z,26.5
2019-01-02T13:01:50.000Z,26.7
2019-01-02T13:02:50.000Z,26.8
2019-01-02T13:04:50.000Z,26.9
2019-01-02T13:06:35.000Z,26.9
2019-01-02T13:07:50.000Z,26.9
2019-01-02T13:09:50.000Z,27
2019-01-02T13:10:50.000Z,27.1
2019-01-02T13:12:50.000Z,27.2
2019-01-02T13:14:50.000Z,27.4
2019-01-02T13:15:50.000Z,27.5
2019-01-02T13:17:50.000Z,27.6
2019-01-02T13:19:50.000Z,27.6
2019-01-02T13:21:50.000Z,27.6
2019-01-02T13:22:50.000Z,27.7
2019-01-02T13:24:50.000Z,27.8
2019-01-02T13:25:50.000Z,27.9
2019-01-02T13:27:50.000Z,28
2019-01-02T13:29:50.000Z,28.1
2019-01-02T13:30:50.000Z,28.1
2019-01-02T13:32:50.000Z,28.1
2019-01-02T13:34:35.000Z,28.1
2019-01-02T13:35:50.000Z,28
2019-01-02T13:36:50.000Z,28
2019-01-02T13:37:50.000Z,28
2019-01-02T13:39:50.000Z,28
2019-01-02T13:41:50.000Z,27.9
2019-01-02T13:42:50.000Z,27.9
2019-01-02T13:44:35.000Z,27.9
2019-01-02T13:45:50.000Z,27.9
2019-01-02T13:47:50.000Z,27.8
2019-01-02T13:48:50.000Z,27.8
2019-01-02T13:50:50.000Z,27.8
2019-01-02T13:52:50.000Z,27.7
2019-01-02T13:53:50.000Z,27.7
2019-01-02T13:55:50.000Z,27.7
2019-01-02T13:57:50.000Z,27.6
2019-01-02T13:59:50.000Z,27.5
2019-01-02T14:00:50.000Z,27.5
2019-01-02T14:02:50.000Z,27.6
2019-01-02T14:04:50.000Z,27.6
2019-01-02T14:05:50.000Z,27.6
2019-01-02T14:07:50.000Z,27.6
2019-01-02T14:08:50.000Z,27.6
2019-01-02T14:09:50.000Z,27.7
2019-01-02T14:11:50.000Z,27.8
2019-01-02T14:12:50.000Z,27.8
2019-01-02T14:14:50.000Z,27.8
2019-01-02T14:16:50.000Z,27.7
2019-01-02T14:17:50.000Z,27.7
2019-01-02T14:19:50.000Z,27.8
2019-01-02T14:20:50.000Z,27.8
2019-01-02T14:22:35.000Z,27.8
2019-01-02T14:23:50.000Z,27.8
2019-01-02T14:25:50.000Z,27.8
2019-01-02T14:27:50.000Z,27.7
2019-01-02T14:28:50.000Z,27.7
2019-01-02T14:30:50.000Z,27.6
2019-01-02T14:32:50.000Z,27.5
2019-01-02T14:33:50.000Z,27.5
2019-01-02T14:34:50.000Z,27.5
2019-01-02T14:36:50.000Z,27.5
2019-01-02T14:38:50.000Z,27.5
2019-01-02T14:40:50.000Z,27.4
2019-01-02T14:42:50.000Z,27.2
2019-01-02T14:43:50.000Z,27.1
2019-01-02T14:45:50.000Z,27
2019-01-02T14:46:50.000Z,27
2019-01-02T14:47:50.000Z,27
2019-01-02T14:49:50.000Z,27
2019-01-02T14:51:50.000Z,27
2019-01-02T14:52:50.000Z,27
2019-01-02T14:53:50.000Z,27
2019-01-02T14:55:50.000Z,26.9
2019-01-02T14:57:35.000Z,26.4
2019-01-02T14:58:50.000Z,26.7
2019-01-02T14:59:50.000Z,26.7
2019-01-02T15:01:34.000Z,26.7
2019-01-02T15:02:50.000Z,26.7
2019-01-02T15:04:50.000Z,26.7
2019-01-02T15:06:50.000Z,26.7
2019-01-02T15:08:34.000Z,26.7
2019-01-02T15:09:50.000Z,26.6
2019-01-02T15:11:50.000Z,26.5
2019-01-02T15:12:50.000Z,26.5
2019-01-02T15:13:50.000Z,26.6
2019-01-02T15:14:50.000Z,26.7
2019-01-02T15:16:50.000Z,26.8
2019-01-02T15:18:50.000Z,26.7
2019-01-02T15:19:50.000Z,26.8
2019-01-02T15:21:50.000Z,26.8
2019-01-02T15:22:50.000Z,26.8
2019-01-02T15:24:50.000Z,26.7
2019-01-02T15:25:50.000Z,26.7
2019-01-02T15:27:50.000Z,26.7
2019-01-02T15:28:50.000Z,26.7
2019-01-02T15:30:50.000Z,26.7
2019-01-02T15:31:50.000Z,26.7
2019-01-02T15:33:50.000Z,26.7
2019-01-02T15:34:50.000Z,26.7
2019-01-02T15:35:50.000Z,26.7
2019-01-02T15:36:50.000Z,26.7
2019-01-02T15:37:50.000Z,26.8
2019-01-02T15:38:50.000Z,26.8
2019-01-02T15:40:50.000Z,26.8
2019-01-02T15:41:50.000Z,26.8
2019-01-02T15:43:50.000Z,26.7
2019-01-02T15:44:50.000Z,26.7
2019-01-02T15:46:50.000Z,26.6
2019-01-02T15:48:50.000Z,26.5
2019-01-02T15:49:50.000Z,26.5
2019-01-02T15:51:50.000Z,26.5
2019-01-02T15:53:50.000Z,26.4
2019-01-02T15:55:50.000Z,26.2
2019-01-02T15:57:50.000Z,26.2
2019-01-02T15:59:50.000Z,26.1
2019-01-02T16:01:50.000Z,26
2019-01-02T16:03:50.000Z,25.8
2019-01-02T16:05:50.000Z,25.7
2019-01-02T16:06:50.000Z,25.7
2019-01-02T16:08:50.000Z,25.8
2019-01-02T16:10:50.000Z,25.9
2019-01-02T16:12:50.000Z,25.9
2019-01-02T16:14:50.000Z,25.9
2019-01-02T16:16:50.000Z,25.9
2019-01-02T16:18:50.000Z,25.9
2019-01-02T16:20:50.000Z,25.9
2019-01-02T16:22:50.000Z,25.8
2019-01-02T16:23:50.000Z,25.8
2019-01-02T16:25:50.000Z,25.8
2019-01-02T16:27:50.000Z,25.8
2019-01-02T16:28:50.000Z,25.9
2019-01-02T16:30:50.000Z,26
2019-01-02T16:32:50.000Z,26
2019-01-02T16:33:50.000Z,26
2019-01-02T16:35:50.000Z,26.1
2019-01-02T16:37:35.000Z,26.1
2019-01-02T16:38:50.000Z,26.1
2019-01-02T16:39:50.000Z,26.1
2019-01-02T16:41:51.000Z,26
2019-01-02T16:42:51.000Z,26.1
2019-01-02T16:44:50.000Z,26
2019-01-02T16:45:51.000Z,26
2019-01-02T16:47:51.000Z,26.1
2019-01-02T16:48:51.000Z,26.1
2019-01-02T16:50:51.000Z,26.1
2019-01-02T16:51:51.000Z,26.1
2019-01-02T16:53:51.000Z,26.2
2019-01-02T16:54:51.000Z,26.2
2019-01-02T16:55:51.000Z,26.2
2019-01-02T16:57:35.000Z,26.2
2019-01-02T16:58:51.000Z,26.2
2019-01-02T16:59:51.000Z,26.2
2019-01-02T17:01:51.000Z,26.2
2019-01-02T17:03:35.000Z,26.2
2019-01-02T17:04:51.000Z,26.1
2019-01-02T17:06:51.000Z,26.1
2019-01-02T17:08:51.000Z,26.1
2019-01-02T17:10:51.000Z,26
2019-01-02T17:12:51.000Z,26
2019-01-02T17:14:51.000Z,26
2019-01-02T17:16:51.000Z,25.9
2019-01-02T17:18:51.000Z,25.9
2019-01-02T17:20:51.000Z,25.8
2019-01-02T17:21:51.000Z,25.8
2019-01-02T17:23:51.000Z,25.9
2019-01-02T17:25:51.000Z,25.9
2019-01-02T17:26:51.000Z,25.9
2019-01-02T17:28:51.000Z,25.9
2019-01-02T17:29:51.000Z,26
2019-01-02T17:30:51.000Z,26
2019-01-02T17:32:51.000Z,26.1
2019-01-02T17:33:51.000Z,26.1
2019-01-02T17:35:51.000Z,26.1
2019-01-02T17:36:51.000Z,26.2
2019-01-02T17:37:51.000Z,26.2
2019-01-02T17:38:51.000Z,26.2
2019-01-02T17:39:51.000Z,26.3
2019-01-02T17:41:51.000Z,26.3
2019-01-02T17:43:51.000Z,26.3
2019-01-02T17:45:50.000Z,26.1
2019-01-02T17:46:50.000Z,26.1
2019-01-02T17:47:50.000Z,26.1
2019-01-02T17:49:50.000Z,26
2019-01-02T17:51:50.000Z,26
2019-01-02T17:53:50.000Z,26
2019-01-02T17:55:50.000Z,25.9
2019-01-02T17:57:50.000Z,25.8
2019-01-02T17:59:50.000Z,25.8
2019-01-02T18:01:35.000Z,25.7
2019-01-02T18:02:50.000Z,25.7
2019-01-02T18:03:50.000Z,25.7
2019-01-02T18:05:50.000Z,25.8
2019-01-02T18:07:50.000Z,25.8
2019-01-02T18:08:50.000Z,25.8
2019-01-02T18:09:50.000Z,25.8
2019-01-02T18:11:50.000Z,25.9
2019-01-02T18:12:50.000Z,25.9
2019-01-02T18:14:50.000Z,26
2019-01-02T18:16:50.000Z,26
2019-01-02T18:18:50.000Z,25.9
2019-01-02T18:20:50.000Z,25.8
2019-01-02T18:22:35.000Z,25.8
2019-01-02T18:23:50.000Z,25.8
2019-01-02T18:25:50.000Z,25.7
2019-01-02T18:26:50.000Z,25.7
2019-01-02T18:28:50.000Z,25.8
2019-01-02T18:29:50.000Z,25.8
2019-01-02T18:30:50.000Z,25.9
2019-01-02T18:32:50.000Z,26
2019-01-02T18:34:35.000Z,26
2019-01-02T18:35:50.000Z,25.9
2019-01-02T18:36:50.000Z,25.9
2019-01-02T18:37:50.000Z,26
2019-01-02T18:39:50.000Z,26
2019-01-02T18:41:35.000Z,26
2019-01-02T18:42:50.000Z,25.9
2019-01-02T18:43:50.000Z,25.9
2019-01-02T18:45:50.000Z,26
2019-01-02T18:47:50.000Z,26
2019-01-02T18:49:50.000Z,25.9
2019-01-02T18:51:50.000Z,25.8
2019-01-02T18:52:50.000Z,25.8
2019-01-02T18:54:50.000Z,25.9
2019-01-02T18:56:50.000Z,25.9
2019-01-02T18:58:50.000Z,25.8
2019-01-02T18:59:50.000Z,25.8
2019-01-02T19:01:50.000Z,25.9
2019-01-02T19:02:50.000Z,25.9
2019-01-02T19:04:50.000Z,26
2019-01-02T19:06:50.000Z,26
2019-01-02T19:07:50.000Z,26
2019-01-02T19:09:50.000Z,26
2019-01-02T19:10:50.000Z,26
2019-01-02T19:11:50.000Z,26
2019-01-02T19:13:50.000Z,26
2019-01-02T19:14:50.000Z,26
2019-01-02T19:16:50.000Z,26
2019-01-02T19:18:50.000Z,25.9
2019-01-02T19:20:50.000Z,25.8
2019-01-02T19:21:50.000Z,25.7
2019-01-02T19:23:50.000Z,25.6
2019-01-02T19:25:50.000Z,25.6
2019-01-02T19:26:50.000Z,25.6
2019-01-02T19:27:50.000Z,25.6
2019-01-02T19:29:50.000Z,25.6
2019-01-02T19:30:50.000Z,25.6
2019-01-02T19:31:50.000Z,25.7
2019-01-02T19:33:50.000Z,25.8
2019-01-02T19:35:50.000Z,25.8
2019-01-02T19:37:50.000Z,25.8
2019-01-02T19:39:50.000Z,25.8
2019-01-02T19:41:35.000Z,25.8
2019-01-02T19:42:50.000Z,25.8
2019-01-02T19:44:35.000Z,25.8
2019-01-02T19:45:50.000Z,25.7
2019-01-02T19:47:50.000Z,25.7
2019-01-02T19:48:50.000Z,25.7
2019-01-02T19:50:50.000Z,25.7
2019-01-02T19:52:50.000Z,25.7
2019-01-02T19:53:50.000Z,25.7
2019-01-02T19:54:50.000Z,25.7
2019-01-02T19:56:50.000Z,25.8
2019-01-02T19:57:50.000Z,25.8
2019-01-02T19:59:50.000Z,25.8
2019-01-02T20:01:50.000Z,25.8
2019-01-02T20:02:50.000Z,25.8
2019-01-02T20:04:50.000Z,25.8
2019-01-02T20:05:50.000Z,25.8
2019-01-02T20:06:50.000Z,25.8
2019-01-02T20:08:50.000Z,25.9
2019-01-02T20:10:35.000Z,25.9
2019-01-02T20:11:50.000Z,25.8
2019-01-02T20:13:50.000Z,25.8
2019-01-02T20:14:50.000Z,25.8
2019-01-02T20:16:50.000Z,25.8
2019-01-02T20:18:50.000Z,25.7
2019-01-02T20:19:50.000Z,25.7
2019-01-02T20:21:50.000Z,25.7
2019-01-02T20:22:50.000Z,25.7
2019-01-02T20:24:50.000Z,25.7
2019-01-02T20:25:50.000Z,25.8
2019-01-02T20:26:50.000Z,25.8
2019-01-02T20:28:35.000Z,25.8
2019-01-02T20:29:50.000Z,25.8
2019-01-02T20:31:50.000Z,25.7
2019-01-02T20:32:50.000Z,25.7
2019-01-02T20:33:50.000Z,25.7
2019-01-02T20:35:50.000Z,25.7
2019-01-02T20:37:50.000Z,25.6
2019-01-02T20:39:50.000Z,25.5
2019-01-02T20:40:50.000Z,25.5
2019-01-02T20:42:50.000Z,25.5
2019-01-02T20:43:50.000Z,25.5
2019-01-02T20:45:50.000Z,25.5
2019-01-02T20:46:50.000Z,25.5
2019-01-02T20:48:50.000Z,25.6
2019-01-02T20:50:50.000Z,25.6
2019-01-02T20:51:50.000Z,25.6
2019-01-02T20:52:50.000Z,25.6
2019-01-02T20:54:50.000Z,25.6
2019-01-02T20:55:50.000Z,25.6
2019-01-02T20:56:50.000Z,25.7
2019-01-02T20:58:50.000Z,25.7
2019-01-02T20:59:50.000Z,25.7
2019-01-02T21:01:50.000Z,25.8